createdAt,value
2023-05-25T00:00:25.358Z,22.10
2023-05-25T00:03:49.581Z,22.10
2023-05-25T00:07:11.918Z,22.10
2023-05-25T00:10:34.274Z,22.10
2023-05-25T00:13:56.488Z,22.10
2023-05-25T00:17:18.933Z,22.10
2023-05-25T00:20:41.339Z,22.10
2023-05-25T00:24:04.743Z,22.10
2023-05-25T00:27:27.052Z,22.10
2023-05-25T00:30:49.518Z,22.10
2023-05-25T00:34:11.991Z,22.10
2023-05-25T00:37:34.294Z,22.10
2023-05-25T00:40:57.196Z,22.00
2023-05-25T00:44:21.907Z,22.10
2023-05-25T00:47:45.574Z,22.00
2023-05-25T00:51:09.633Z,22.10
2023-05-25T00:54:33.460Z,22.10
2023-05-25T00:58:00.609Z,22.10
2023-05-25T01:01:25.654Z,22.00
2023-05-25T01:04:53.192Z,22.00
2023-05-25T01:08:19.644Z,22.00
2023-05-25T01:11:44.331Z,22.00
2023-05-25T01:15:09.192Z,22.00
2023-05-25T01:18:31.455Z,22.00
2023-05-25T01:21:56.546Z,22.00
2023-05-25T01:25:40.169Z,22.00
2023-05-25T01:29:03.217Z,22.00
2023-05-25T01:32:26.432Z,22.00
2023-05-25T01:35:49.640Z,22.00
2023-05-25T01:39:13.070Z,22.00
2023-05-25T01:42:35.459Z,22.00
2023-05-25T01:46:30.441Z,22.00
2023-05-25T01:50:22.389Z,22.00
2023-05-25T01:53:50.989Z,22.00
2023-05-25T01:57:16.748Z,22.00
2023-05-25T02:00:41.690Z,21.90
2023-05-25T02:04:04.679Z,21.90
2023-05-25T02:07:27.797Z,21.90
2023-05-25T02:10:50.886Z,21.90
2023-05-25T02:14:13.574Z,21.90
2023-05-25T02:17:37.146Z,21.90
2023-05-25T02:21:00.395Z,21.90
2023-05-25T02:24:24.680Z,21.90
2023-05-25T02:27:48.434Z,21.90
2023-05-25T02:31:10.840Z,21.90
2023-05-25T02:34:33.460Z,21.90
2023-05-25T02:37:55.868Z,21.90
2023-05-25T02:41:21.892Z,21.90
2023-05-25T02:44:48.441Z,21.90
2023-05-25T02:48:10.898Z,21.90
2023-05-25T02:51:33.717Z,21.90
2023-05-25T02:54:56.445Z,21.90
2023-05-25T02:58:26.107Z,21.90
2023-05-25T03:02:21.203Z,21.90
2023-05-25T03:05:43.949Z,21.90
2023-05-25T03:09:07.290Z,21.90
2023-05-25T03:12:29.693Z,21.90
2023-05-25T03:15:52.297Z,21.90
2023-05-25T03:19:15.032Z,21.90
2023-05-25T03:22:37.596Z,21.90
2023-05-25T03:26:00.402Z,21.80
2023-05-25T03:29:23.288Z,21.80
2023-05-25T03:32:45.774Z,21.80
2023-05-25T03:36:09.180Z,21.80
2023-05-25T03:39:31.498Z,21.80
2023-05-25T03:42:53.737Z,21.80
2023-05-25T03:46:16.773Z,21.80
2023-05-25T03:49:39.325Z,21.80
2023-05-25T03:53:01.573Z,21.80
2023-05-25T03:56:23.967Z,21.80
2023-05-25T03:59:46.952Z,21.80
2023-05-25T04:03:10.882Z,21.80
2023-05-25T04:06:37.133Z,21.80
2023-05-25T04:09:59.751Z,21.80
2023-05-25T04:13:22.000Z,21.80
2023-05-25T04:16:46.023Z,21.80
2023-05-25T04:20:11.007Z,21.80
2023-05-25T04:23:36.501Z,21.80
2023-05-25T04:26:59.751Z,21.80
2023-05-25T04:30:22.356Z,21.80
2023-05-25T04:34:03.809Z,21.80
2023-05-25T04:37:30.553Z,21.80
2023-05-25T04:40:54.650Z,21.80
2023-05-25T04:44:17.822Z,21.70
2023-05-25T04:47:43.884Z,21.80
2023-05-25T04:51:07.712Z,21.80
2023-05-25T04:54:30.316Z,21.80
2023-05-25T04:57:55.204Z,21.70
2023-05-25T05:01:20.608Z,21.70
2023-05-25T05:04:43.945Z,21.70
2023-05-25T05:08:06.298Z,21.70
2023-05-25T05:11:29.083Z,21.70
2023-05-25T05:14:53.127Z,21.70
2023-05-25T05:18:15.943Z,21.70
2023-05-25T05:21:39.118Z,21.70
2023-05-25T05:25:02.762Z,21.80
2023-05-25T05:28:27.391Z,21.80
2023-05-25T05:31:49.900Z,21.90
2023-05-25T05:35:12.383Z,21.90
2023-05-25T05:38:41.419Z,21.90
2023-05-25T05:42:08.137Z,22.00
2023-05-25T05:45:30.558Z,22.00
2023-05-25T05:48:55.206Z,22.00
2023-05-25T05:52:18.649Z,22.10
2023-05-25T05:55:40.990Z,22.10
2023-05-25T05:59:03.431Z,22.00
2023-05-25T06:02:26.006Z,22.20
2023-05-25T06:05:48.665Z,22.30
2023-05-25T06:09:12.779Z,22.30
2023-05-25T06:12:35.367Z,22.30
2023-05-25T06:15:57.649Z,22.40
2023-05-25T06:19:21.121Z,22.40
2023-05-25T06:22:43.686Z,22.40
2023-05-25T06:26:06.501Z,22.40
2023-05-25T06:29:28.993Z,22.40
2023-05-25T06:32:51.385Z,22.40
2023-05-25T06:36:15.821Z,22.50
2023-05-25T06:39:40.634Z,22.50
2023-05-25T06:43:02.975Z,22.60
2023-05-25T06:46:45.021Z,22.70
2023-05-25T06:50:08.262Z,22.70
2023-05-25T06:53:31.514Z,22.70
2023-05-25T06:56:53.957Z,22.70
2023-05-25T07:00:16.919Z,22.70
2023-05-25T07:03:39.097Z,22.60
2023-05-25T07:07:01.666Z,22.70
2023-05-25T07:10:24.157Z,22.80
2023-05-25T07:13:46.692Z,22.80
2023-05-25T07:17:08.862Z,22.80
2023-05-25T07:20:31.196Z,22.80
2023-05-25T07:23:53.452Z,22.90
2023-05-25T07:27:16.491Z,23.00
2023-05-25T07:30:42.919Z,22.90
2023-05-25T07:34:05.243Z,22.80
2023-05-25T07:37:27.597Z,22.90
2023-05-25T07:40:50.094Z,23.00
2023-05-25T07:44:12.419Z,23.20
2023-05-25T07:47:34.751Z,23.40
2023-05-25T07:50:57.370Z,23.40
2023-05-25T07:54:19.639Z,23.40
2023-05-25T07:57:42.146Z,23.50
2023-05-25T08:01:04.524Z,23.60
2023-05-25T08:04:26.897Z,23.60
2023-05-25T08:07:49.250Z,23.70
2023-05-25T08:11:12.024Z,23.70
2023-05-25T08:14:34.223Z,23.60
2023-05-25T08:17:56.856Z,23.40
2023-05-25T08:21:19.263Z,23.30
2023-05-25T08:24:41.544Z,23.20
2023-05-25T08:28:04.005Z,23.20
2023-05-25T08:31:26.540Z,23.20
2023-05-25T08:34:48.830Z,23.10
2023-05-25T08:38:11.231Z,23.10
2023-05-25T08:41:41.328Z,23.00
2023-05-25T08:45:04.039Z,23.00
2023-05-25T08:48:39.897Z,23.00
2023-05-25T08:52:05.883Z,23.00
2023-05-25T08:55:31.580Z,23.10
2023-05-25T08:59:06.944Z,23.20
2023-05-25T09:02:51.183Z,23.10
2023-05-25T09:06:14.411Z,23.10
2023-05-25T09:09:38.933Z,23.10
2023-05-25T09:13:16.593Z,23.10
2023-05-25T09:16:43.025Z,23.00
2023-05-25T09:20:06.281Z,23.00
2023-05-25T09:23:28.853Z,23.00
2023-05-25T09:26:51.264Z,23.00
2023-05-25T09:30:13.925Z,23.00
2023-05-25T09:33:39.960Z,23.00
2023-05-25T09:37:13.057Z,23.00
2023-05-25T09:40:37.970Z,23.00
2023-05-25T09:44:11.167Z,23.00
2023-05-25T09:47:36.754Z,23.00
2023-05-25T09:50:59.203Z,23.00
2023-05-25T09:54:22.884Z,23.10
2023-05-25T09:57:45.099Z,23.10
2023-05-25T10:01:07.543Z,23.10
2023-05-25T10:04:29.838Z,23.10
2023-05-25T10:07:55.984Z,23.10
2023-05-25T10:11:21.279Z,23.10
2023-05-25T10:14:46.120Z,23.10
2023-05-25T10:18:12.225Z,23.10
2023-05-25T10:21:37.055Z,23.10
2023-05-25T10:25:23.357Z,23.10
2023-05-25T10:28:48.028Z,23.10
2023-05-25T10:32:11.079Z,23.10
2023-05-25T10:35:50.740Z,23.10
2023-05-25T10:39:20.276Z,23.00
2023-05-25T10:42:43.080Z,23.00
2023-05-25T10:46:07.055Z,23.00
2023-05-25T10:49:35.959Z,23.00
2023-05-25T10:53:08.367Z,23.00
2023-05-25T10:56:30.753Z,23.00
2023-05-25T11:00:06.633Z,23.00
2023-05-25T11:04:15.622Z,23.00
2023-05-25T11:07:56.596Z,23.00
2023-05-25T11:11:19.311Z,23.00
2023-05-25T11:14:43.572Z,22.90
2023-05-25T11:18:06.020Z,22.90
2023-05-25T11:21:28.943Z,23.00
2023-05-25T11:24:53.068Z,23.00
2023-05-25T11:28:15.802Z,22.90
2023-05-25T11:31:42.452Z,22.90
2023-05-25T11:35:09.270Z,22.90
2023-05-25T11:38:31.574Z,22.90
2023-05-25T11:42:03.078Z,22.90
2023-05-25T11:45:28.460Z,22.90
2023-05-25T11:48:53.096Z,23.00
2023-05-25T11:52:17.123Z,22.90
2023-05-25T11:55:41.680Z,22.90
2023-05-25T11:59:07.948Z,22.80
2023-05-25T12:02:38.901Z,22.80
2023-05-25T12:06:02.405Z,22.70
2023-05-25T12:09:24.629Z,22.70
2023-05-25T12:12:51.595Z,22.60
2023-05-25T12:16:14.408Z,22.70
2023-05-25T12:19:37.009Z,22.60
2023-05-25T12:22:59.419Z,22.60
2023-05-25T12:26:21.668Z,22.60
2023-05-25T12:29:50.195Z,22.50
2023-05-25T12:33:14.842Z,22.50
2023-05-25T12:36:46.286Z,22.50
2023-05-25T12:40:21.110Z,22.50
2023-05-25T12:43:43.931Z,22.50
2023-05-25T12:47:15.950Z,22.50
2023-05-25T12:50:38.388Z,22.50
2023-05-25T12:54:01.571Z,22.50
2023-05-25T12:57:36.248Z,22.50
2023-05-25T13:00:58.585Z,22.50
2023-05-25T13:04:21.446Z,22.50
2023-05-25T13:07:44.222Z,22.40
2023-05-25T13:11:06.741Z,22.50
2023-05-25T13:14:30.263Z,22.50
2023-05-25T13:17:54.305Z,22.60
2023-05-25T13:21:16.647Z,22.70
2023-05-25T13:24:38.963Z,22.80
2023-05-25T13:28:02.121Z,22.80
2023-05-25T13:31:25.051Z,22.90
2023-05-25T13:34:47.346Z,22.90
2023-05-25T13:38:10.591Z,22.90
2023-05-25T13:41:32.902Z,22.90
2023-05-25T13:44:55.183Z,22.90
2023-05-25T13:48:17.653Z,22.90
2023-05-25T13:51:39.987Z,23.00
2023-05-25T13:55:02.283Z,23.00
2023-05-25T13:58:27.557Z,23.00
2023-05-25T14:01:50.021Z,23.00
2023-05-25T14:05:12.318Z,23.00
2023-05-25T14:08:34.651Z,23.00
2023-05-25T14:11:57.131Z,23.00
2023-05-25T14:15:19.420Z,22.90
2023-05-25T14:18:41.823Z,22.90
2023-05-25T14:22:13.302Z,22.90
2023-05-25T14:25:36.824Z,22.90
2023-05-25T14:28:59.074Z,22.90
2023-05-25T14:32:21.352Z,22.90
2023-05-25T14:35:43.925Z,22.90
2023-05-25T14:39:06.303Z,22.90
2023-05-25T14:42:30.195Z,22.90
2023-05-25T14:45:52.435Z,22.90
2023-05-25T14:49:16.782Z,22.90
2023-05-25T14:52:39.131Z,22.90
2023-05-25T14:56:03.645Z,22.90
2023-05-25T14:59:25.902Z,22.90
2023-05-25T15:02:48.227Z,22.90
2023-05-25T15:06:10.724Z,22.80
2023-05-25T15:09:33.906Z,22.70
2023-05-25T15:12:56.241Z,22.70
2023-05-25T15:16:18.516Z,22.70
2023-05-25T15:19:40.870Z,22.60
2023-05-25T15:23:03.079Z,22.60
2023-05-25T15:26:26.462Z,22.60
2023-05-25T15:29:48.825Z,22.60
2023-05-25T15:33:13.691Z,22.60
2023-05-25T15:36:36.815Z,22.60
2023-05-25T15:39:59.217Z,22.60
2023-05-25T15:43:21.521Z,22.60
2023-05-25T15:46:43.863Z,22.60
2023-05-25T15:50:06.821Z,22.60
2023-05-25T15:53:30.430Z,22.60
2023-05-25T15:56:52.727Z,22.60
2023-05-25T16:00:15.734Z,22.60
2023-05-25T16:03:37.949Z,22.60
2023-05-25T16:07:01.391Z,22.50
2023-05-25T16:10:23.717Z,22.60
2023-05-25T16:13:46.040Z,22.50
2023-05-25T16:17:08.359Z,22.50
2023-05-25T16:20:30.831Z,22.60
2023-05-25T16:23:53.079Z,22.60
2023-05-25T16:27:15.481Z,22.60
2023-05-25T16:30:37.983Z,22.60
2023-05-25T16:34:01.500Z,22.60
2023-05-25T16:37:23.754Z,22.50
2023-05-25T16:40:46.093Z,22.50
2023-05-25T16:44:11.410Z,22.60
2023-05-25T16:47:33.648Z,22.50
2023-05-25T16:50:56.120Z,22.60
2023-05-25T16:54:18.382Z,22.60
2023-05-25T16:57:40.603Z,22.60
2023-05-25T17:01:02.981Z,22.60
2023-05-25T17:04:25.316Z,22.60
2023-05-25T17:07:47.608Z,22.60
2023-05-25T17:11:09.918Z,22.60
2023-05-25T17:14:32.355Z,22.50
2023-05-25T17:17:54.647Z,22.50
2023-05-25T17:21:16.980Z,22.50
2023-05-25T17:24:39.319Z,22.60
2023-05-25T17:28:01.557Z,22.60
2023-05-25T17:31:23.900Z,22.60
2023-05-25T17:34:46.247Z,22.60
2023-05-25T17:38:08.506Z,22.50
2023-05-25T17:41:30.936Z,22.50
2023-05-25T17:44:53.357Z,22.50
2023-05-25T17:48:15.771Z,22.50
2023-05-25T17:51:38.081Z,22.40
2023-05-25T17:55:00.473Z,22.40
2023-05-25T17:58:22.738Z,22.40
2023-05-25T18:01:45.095Z,22.50
2023-05-25T18:05:07.559Z,22.40
2023-05-25T18:08:29.781Z,22.50
2023-05-25T18:11:55.093Z,22.40
2023-05-25T18:15:17.853Z,22.40
2023-05-25T18:18:40.100Z,22.40
2023-05-25T18:22:02.449Z,22.30
2023-05-25T18:25:24.857Z,22.30
2023-05-25T18:28:47.039Z,22.30
2023-05-25T18:32:09.383Z,22.30
2023-05-25T18:35:31.586Z,22.30
2023-05-25T18:38:54.032Z,22.20
2023-05-25T18:42:16.290Z,22.10
2023-05-25T18:45:38.544Z,22.10
2023-05-25T18:49:01.037Z,22.10
2023-05-25T18:52:24.440Z,22.20
2023-05-25T18:55:46.912Z,22.30
2023-05-25T18:59:09.386Z,22.30
2023-05-25T19:02:31.671Z,22.40
2023-05-25T19:05:53.995Z,22.50
2023-05-25T19:09:16.266Z,22.60
2023-05-25T19:12:38.552Z,22.60
2023-05-25T19:16:01.323Z,22.60
2023-05-25T19:19:23.632Z,22.60
2023-05-25T19:22:46.413Z,22.70
2023-05-25T19:26:08.629Z,22.70
2023-05-25T19:29:31.207Z,22.70
2023-05-25T19:32:53.455Z,22.80
2023-05-25T19:36:16.153Z,22.80
2023-05-25T19:39:38.497Z,22.80
2023-05-25T19:43:00.774Z,22.80
2023-05-25T19:46:23.100Z,22.70
2023-05-25T19:49:45.921Z,22.70
2023-05-25T19:53:08.341Z,22.70
2023-05-25T19:56:30.931Z,22.70
2023-05-25T19:59:53.691Z,22.70
2023-05-25T20:03:17.481Z,22.80
2023-05-25T20:06:39.829Z,22.80
2023-05-25T20:10:02.530Z,22.80
2023-05-25T20:13:25.004Z,22.80
2023-05-25T20:16:47.561Z,22.80
2023-05-25T20:20:10.068Z,22.90
2023-05-25T20:23:32.384Z,22.80
2023-05-25T20:26:56.814Z,22.80
2023-05-25T20:30:19.692Z,22.80
2023-05-25T20:33:41.928Z,22.80
2023-05-25T20:37:04.218Z,22.80
2023-05-25T20:40:27.152Z,22.80
2023-05-25T20:43:49.460Z,22.90
2023-05-25T20:47:11.749Z,22.90
2023-05-25T20:50:34.237Z,22.90
2023-05-25T20:53:56.499Z,22.90
2023-05-25T20:57:18.719Z,22.90
2023-05-25T21:00:40.994Z,22.90
2023-05-25T21:04:03.413Z,22.90
2023-05-25T21:07:25.688Z,22.90
2023-05-25T21:10:47.986Z,22.90
2023-05-25T21:14:10.349Z,22.80
2023-05-25T21:17:32.557Z,22.90
2023-05-25T21:20:54.882Z,22.90
2023-05-25T21:24:17.298Z,22.90
2023-05-25T21:27:39.539Z,22.90
2023-05-25T21:31:01.977Z,22.90
2023-05-25T21:34:24.195Z,22.90
2023-05-25T21:37:46.497Z,22.90
2023-05-25T21:41:10.091Z,22.90
2023-05-25T21:44:32.494Z,22.90
2023-05-25T21:47:54.709Z,22.90
2023-05-25T21:51:17.289Z,22.80
2023-05-25T21:54:39.574Z,22.80
2023-05-25T21:58:01.997Z,22.80
2023-05-25T22:01:24.294Z,22.90
2023-05-25T22:04:46.656Z,22.80
2023-05-25T22:08:09.140Z,22.80
2023-05-25T22:11:31.373Z,22.80
2023-05-25T22:14:53.685Z,22.80
2023-05-25T22:18:15.987Z,22.80
2023-05-25T22:21:38.214Z,22.80
2023-05-25T22:25:00.614Z,22.80
2023-05-25T22:28:22.798Z,22.80
2023-05-25T22:31:45.111Z,22.80
2023-05-25T22:35:07.852Z,22.70
2023-05-25T22:38:30.143Z,22.80
2023-05-25T22:41:52.965Z,22.70
2023-05-25T22:45:15.687Z,22.80
2023-05-25T22:48:37.969Z,22.70
2023-05-25T22:52:00.198Z,22.70
2023-05-25T22:55:22.591Z,22.70
2023-05-25T22:58:44.851Z,22.70
2023-05-25T23:02:07.595Z,22.70
2023-05-25T23:05:30.259Z,22.70
2023-05-25T23:08:53.249Z,22.70
2023-05-25T23:12:15.563Z,22.70
2023-05-25T23:15:39.916Z,22.70
2023-05-25T23:19:02.344Z,22.70
2023-05-25T23:22:24.722Z,22.70
2023-05-25T23:25:47.196Z,22.70
2023-05-25T23:29:09.598Z,22.70
2023-05-25T23:32:31.825Z,22.70
2023-05-25T23:35:54.059Z,22.70
2023-05-25T23:39:16.258Z,22.70
2023-05-25T23:42:39.883Z,22.70
2023-05-25T23:46:02.513Z,22.70
2023-05-25T23:49:24.767Z,22.70
2023-05-25T23:52:47.065Z,22.70
2023-05-25T23:56:09.247Z,22.60
2023-05-25T23:59:31.514Z,22.70
